LSZLETSH

Guest
Details From LSZL - Locarno
To ETSH - Holzdorf
Flight Number -
Tags Decoded
Created
Modified
Stats Distance 404 nm / 748 km
Max Altitude 0 ft / 0 m
Waypoints 4
Social Downloads 0
Likes 0
Share VATSIM

Download

Looking for another format? Having issues loading an existing format? Contact us
Advertisement - Login to hide

Notes

Decoded

Route

ABESI LOHRE ROBEL RUDAK

ID Type Via Altitude Latitude Longitude Leg Dist Tot Dist Heading (true) Name
O ABESI FIX - 0 ft / 0 m 46.15972˚ 9.04278˚ - 0 nm - -
LOHRE FIX - 0 ft / 0 m 50.06694˚ 9.48639˚ 235 nm 235 nm 4° / 5° -
ROBEL FIX - 0 ft / 0 m 50.89753˚ 10.43367˚ 61 nm 296 nm 36° / 36° -
O RUDAK FIX - 0 ft / 0 m 51.72722˚ 12.94639˚ 106 nm 403 nm 61° / 63° -

Altitude Profile

Advertisement - Login to hide

Weather


0- 5 10 15 20 25 30 35+ Temperature / ° C

Clouds and Precipitation
Forecast for 2017-12-15 12:00 UTC. Updated an hour ago

Ground ~20,000 ft ~40,000 ft Winds

LSZL

Details ICAO LSZL (ZJI)
Name Locarno
Region Switzerland
Timezone Europe/Zurich (UTC+1.0)
Stats Elevation 650 ft / 198 m (AMSL)
Location 46.162618° 8.879874°
Runways 3
Magnetic Variation 2.418° E

METAR

LSZL 151150Z 05004KT 9999 SCT140 04/01 Q1000 RMK BLU+

Decode

TAF

Not found

Departure Runways

ID Width Length Bearing (true) Bearing (mag) Surface Threshold Offset Overrun Length
08C 98 ft / 30 m 2,298 ft / 700 m 80.00° 77.58° Grass 0 ft / 0 m 0 ft / 0 m
08L 75 ft / 23 m 2,626 ft / 801 m 80.00° 77.58° Asphalt 0 ft / 0 m 0 ft / 0 m
08R 98 ft / 30 m 2,298 ft / 700 m 80.00° 77.58° Grass 0 ft / 0 m 0 ft / 0 m
26C 98 ft / 30 m 2,298 ft / 700 m 260.00° 257.58° Grass 0 ft / 0 m 0 ft / 0 m
26L 98 ft / 30 m 2,298 ft / 700 m 260.00° 257.58° Grass 0 ft / 0 m 0 ft / 0 m
26R 75 ft / 23 m 2,626 ft / 801 m 260.00° 257.58° Asphalt 0 ft / 0 m 0 ft / 0 m

ETSH

Details ICAO ETSH
Name Holzdorf
Region Germany - Military
Timezone Europe/Berlin (UTC+1.0)
Stats Elevation 265 ft / 81 m (AMSL)
Location 51.767834° 13.167667°
Runways 1
Magnetic Variation 3.672° E

METAR

ETSH 151120Z 24005KT 8000 FEW005 BKN009 BKN026 01/00 Q0996 RESN GRN

Decode

TAF

Not found

Destination Runways

ID Width Length Bearing (true) Bearing (mag) Surface Threshold Offset Overrun Length
09 98 ft / 30 m 7,919 ft / 2,414 m 93.51° 89.84° Asphalt 0 ft / 0 m 1,001 ft / 305 m
27 98 ft / 30 m 7,919 ft / 2,414 m 273.54° 269.87° Asphalt 0 ft / 0 m 1,001 ft / 305 m

Approach Navaids

Runway Type Ident Frequency Range Bearing (true) Bearing (mag) Slope Elevation
27 Localiser IHDW 111.70 MHz 18 nm / 33 km 273.62° 269.95° - 264 ft / 80 m (AMSL)
27 Glidescope IHDW 111.70 MHz 10 nm / 19 km 273.52° 269.85° 3.00° 296 ft / 90 m (AMSL)